Time;durP1;ratioP1;P1;durP2;ratioP2;P2;SDS_P1;SDS_P2;PMS_P1;PMS_P2;Temp;Humidity;BMP_temperature;BMP_pressure;BME280_temperature;BME280_humidity;BME280_pressure;Samples;Min_cycle;Max_cycle;Signal;HPM_P1;HPM_P2
2023/09/20 00:00:57;;;;;;;2.08;1.35;;;;;;;18.07;65.47;100439.28;4186090;28;20519;-59
2023/09/20 00:03:00;;;;;;;2.88;1.60;;;;;;;18.04;65.60;100429.66;4180091;28;20056;-59
2023/09/20 00:05:04;;;;;;;2.78;1.50;;;;;;;18.02;65.82;100430.59;4185328;28;20518;-59
2023/09/20 00:07:08;;;;;;;3.10;1.20;;;;;;;18.03;65.52;100422.66;4206029;28;20044;-59
2023/09/20 00:09:11;;;;;;;3.53;1.30;;;;;;;18.00;65.84;100430.59;4185227;28;20077;-59
2023/09/20 00:11:18;;;;;;;4.72;1.80;;;;;;;18.00;66.29;100433.25;4183585;28;20045;-59
2023/09/20 00:13:21;;;;;;;5.03;1.85;;;;;;;17.94;66.21;100428.94;4188490;28;20040;-59
2023/09/20 00:15:24;;;;;;;5.22;2.00;;;;;;;18.03;65.77;100419.19;4183542;28;20237;-58
2023/09/20 00:17:27;;;;;;;5.35;1.98;;;;;;;18.01;66.38;100420.97;4184791;28;20076;-59
2023/09/20 00:19:30;;;;;;;4.22;1.75;;;;;;;18.01;65.85;100421.84;4188137;28;20037;-59
2023/09/20 00:21:34;;;;;;;4.28;1.95;;;;;;;18.00;66.12;100427.13;4184357;28;20047;-59
2023/09/20 00:23:37;;;;;;;2.90;1.63;;;;;;;17.93;66.02;100416.72;4181494;28;20064;-59
2023/09/20 00:25:40;;;;;;;3.35;1.90;;;;;;;17.93;65.81;100410.56;4189675;28;20135;-59
2023/09/20 00:27:45;;;;;;;4.60;1.85;;;;;;;17.91;66.27;100412.38;4180557;28;20036;-59
2023/09/20 00:29:48;;;;;;;3.20;1.60;;;;;;;17.89;66.38;100411.50;4187101;28;20037;-59
2023/09/20 00:31:51;;;;;;;4.93;1.48;;;;;;;17.87;66.54;100406.28;4187836;28;20033;-59
2023/09/20 00:33:56;;;;;;;13.13;1.98;;;;;;;17.91;66.59;100407.09;4185729;28;20040;-60
2023/09/20 00:35:59;;;;;;;2.60;1.58;;;;;;;17.89;67.08;100408.88;4185832;28;20049;-59
2023/09/20 00:38:03;;;;;;;3.97;1.80;;;;;;;17.87;66.81;100416.78;4187043;28;20427;-59
2023/09/20 00:40:13;;;;;;;4.82;1.95;;;;;;;17.85;66.92;100401.91;4182855;28;20037;-59
2023/09/20 00:42:16;;;;;;;6.97;2.53;;;;;;;17.80;66.92;100400.22;4183308;28;20028;-61
2023/09/20 00:44:19;;;;;;;3.45;1.70;;;;;;;17.85;67.18;100399.28;4184605;28;20040;-59
2023/09/20 00:46:23;;;;;;;5.90;1.80;;;;;;;17.83;67.21;100393.16;4202446;28;20077;-59
2023/09/20 00:48:26;;;;;;;3.90;1.92;;;;;;;17.86;67.04;100399.25;4191291;28;20040;-59
2023/09/20 00:50:31;;;;;;;3.08;1.50;;;;;;;17.78;67.30;100402.03;4172251;28;20508;-59
2023/09/20 00:52:34;;;;;;;3.72;1.73;;;;;;;17.77;67.26;100395.03;4189672;28;20028;-59
2023/09/20 00:54:39;;;;;;;3.60;1.70;;;;;;;17.81;67.12;100395.81;4195497;28;20136;-60
2023/09/20 00:56:42;;;;;;;;;;;;;;;17.64;67.44;100388.25;4186307;28;20488;-59
2023/09/20 00:58:46;;;;;;;3.22;1.65;;;;;;;17.70;67.43;100393.38;4189225;28;19921;-59
2023/09/20 01:00:52;;;;;;;6.15;2.63;;;;;;;17.69;67.41;100381.13;4183353;28;20032;-60
2023/09/20 01:02:55;;;;;;;5.05;1.30;;;;;;;17.69;67.73;100380.28;4195963;28;20036;-60
2023/09/20 01:04:59;;;;;;;4.47;1.63;;;;;;;17.69;68.08;100391.66;4189601;28;20037;-59
2023/09/20 01:07:02;;;;;;;3.88;1.80;;;;;;;17.73;67.59;100385.44;4187365;28;20123;-59
2023/09/20 01:09:04;;;;;;;6.57;1.67;;;;;;;17.84;67.35;100387.88;4189321;28;20055;-59
2023/09/20 01:11:09;;;;;;;4.40;2.28;;;;;;;17.76;66.99;100388.03;4190862;28;20052;-59
2023/09/20 01:13:15;;;;;;;3.60;1.52;;;;;;;17.80;67.18;100387.09;4188078;28;20057;-59
2023/09/20 01:15:17;;;;;;;4.18;1.67;;;;;;;17.77;67.00;100391.50;4181871;28;20071;-59
2023/09/20 01:17:20;;;;;;;3.75;1.67;;;;;;;17.75;67.57;100388.03;4187710;28;20036;-59
2023/09/20 01:19:23;;;;;;;6.73;1.67;;;;;;;17.80;67.41;100384.44;4178970;28;20120;-59
2023/09/20 01:21:26;;;;;;;3.95;2.33;;;;;;;17.74;67.34;100394.19;4177683;28;20045;-59
2023/09/20 01:23:34;;;;;;;4.05;1.85;;;;;;;17.75;67.60;100388.03;4195278;28;20064;-59
2023/09/20 01:25:39;;;;;;;3.55;1.80;;;;;;;17.71;67.33;100384.63;4192205;28;20423;-59
2023/09/20 01:27:43;;;;;;;6.38;1.98;;;;;;;17.74;67.68;100384.56;4201053;28;20039;-59
2023/09/20 01:29:47;;;;;;;3.13;1.40;;;;;;;17.74;67.52;100392.44;4186831;28;20036;-59
2023/09/20 01:31:50;;;;;;;2.58;1.75;;;;;;;17.69;67.61;100388.16;4184246;28;20098;-59
2023/09/20 01:33:54;;;;;;;3.45;1.52;;;;;;;17.71;67.52;100387.25;4189040;28;20119;-59
2023/09/20 01:35:58;;;;;;;5.72;2.40;;;;;;;17.79;66.68;100377.44;4181486;28;20033;-59
2023/09/20 01:38:06;;;;;;;4.53;1.75;;;;;;;17.68;67.25;100392.53;4188245;28;20676;-59
2023/09/20 01:40:15;;;;;;;2.42;1.90;;;;;;;17.65;67.39;100389.09;4187241;28;20033;-59
2023/09/20 01:42:18;;;;;;;3.80;1.88;;;;;;;17.67;67.47;100389.94;4187159;28;20427;-59
2023/09/20 01:44:22;;;;;;;3.45;1.75;;;;;;;17.64;67.56;100382.97;4188294;28;20043;-59
2023/09/20 01:46:25;;;;;;;5.65;1.92;;;;;;;17.59;67.90;100379.53;4185137;28;20078;-59
2023/09/20 01:48:28;;;;;;;2.90;1.60;;;;;;;17.60;67.76;100391.81;4181126;28;20091;-59
2023/09/20 01:50:32;;;;;;;3.53;1.80;;;;;;;17.63;67.70;100382.09;4187984;28;20037;-59
2023/09/20 01:52:34;;;;;;;7.13;2.10;;;;;;;17.62;67.92;100390.00;4186489;28;20082;-59
2023/09/20 01:54:37;;;;;;;3.60;1.75;;;;;;;17.62;67.46;100383.00;4184971;28;20111;-59
2023/09/20 01:56:42;;;;;;;5.25;1.70;;;;;;;17.57;67.60;100374.31;4187105;28;20042;-59
2023/09/20 01:58:44;;;;;;;2.67;1.48;;;;;;;17.56;68.02;100372.56;4180283;28;20049;-59
2023/09/20 02:00:50;;;;;;;3.70;1.70;;;;;;;17.62;67.37;100372.50;4193021;28;20111;-59
2023/09/20 02:02:54;;;;;;;4.65;1.90;;;;;;;17.57;68.00;100365.56;4182307;28;20032;-59
2023/09/20 02:04:57;;;;;;;1.65;1.40;;;;;;;17.55;67.94;100373.47;4182389;28;20479;-58
2023/09/20 02:07:00;;;;;;;2.53;2.08;;;;;;;17.68;66.75;100365.38;4186215;28;20466;-59
2023/09/20 02:09:04;;;;;;;2.97;1.75;;;;;;;17.62;67.22;100368.97;4184747;28;20116;-59
2023/09/20 02:11:09;;;;;;;4.55;2.30;;;;;;;17.62;67.31;100363.72;4183117;28;20044;-59
2023/09/20 02:13:15;;;;;;;3.03;2.00;;;;;;;17.64;66.96;100369.84;4187774;28;20588;-59
2023/09/20 02:15:19;;;;;;;5.72;2.10;;;;;;;17.78;66.58;100362.59;4184152;28;20064;-59
2023/09/20 02:17:22;;;;;;;2.90;1.92;;;;;;;17.69;66.64;100367.13;4189561;28;20048;-59
2023/09/20 02:19:25;;;;;;;3.67;2.08;;;;;;;17.64;66.75;100372.47;4182868;28;20037;-59
2023/09/20 02:21:28;;;;;;;5.60;2.42;;;;;;;17.63;67.16;100373.34;4182617;28;20063;-59
2023/09/20 02:23:30;;;;;;;4.32;1.90;;;;;;;17.65;67.18;100373.31;4185124;28;20484;-59
2023/09/20 02:25:37;;;;;;;4.50;2.10;;;;;;;17.61;67.70;100368.13;4203790;28;20047;-59
2023/09/20 02:27:42;;;;;;;3.28;1.77;;;;;;;17.59;67.35;100375.13;4174246;28;20032;-59
2023/09/20 02:29:47;;;;;;;4.03;1.80;;;;;;;17.68;67.50;100379.38;4193777;28;20044;-59
2023/09/20 02:31:50;;;;;;;5.65;1.70;;;;;;;17.60;67.61;100370.78;4158342;28;20045;-59
2023/09/20 02:33:54;;;;;;;2.33;1.40;;;;;;;17.57;67.35;100365.56;4176817;28;20600;-59
2023/09/20 02:35:57;;;;;;;3.13;1.73;;;;;;;17.58;67.97;100370.81;4193065;28;20047;-59
2023/09/20 02:38:04;;;;;;;5.65;2.35;;;;;;;17.65;67.58;100374.19;4174907;28;20036;-59
2023/09/20 02:40:09;;;;;;;3.83;1.73;;;;;;;17.66;67.23;100365.41;4185597;28;20458;-59
2023/09/20 02:42:12;;;;;;;3.80;2.08;;;;;;;17.61;67.57;100372.53;4200082;28;20035;-59
2023/09/20 02:44:18;;;;;;;5.80;2.10;;;;;;;17.68;67.11;100363.59;4200472;28;20530;-58
2023/09/20 02:46:22;;;;;;;5.30;2.00;;;;;;;17.63;67.15;100358.44;4182811;28;20499;-59
2023/09/20 02:48:26;;;;;;;;;;;;;;;17.50;67.21;100362.16;4188254;28;20048;-59
2023/09/20 02:50:29;;;;;;;4.65;2.00;;;;;;;17.47;67.67;100359.59;4185770;28;20422;-59
2023/09/20 02:52:34;;;;;;;7.13;1.95;;;;;;;17.49;67.51;100351.66;4184048;28;20415;-59
2023/09/20 02:54:37;;;;;;;4.38;2.00;;;;;;;17.50;67.48;100356.91;4206477;28;20040;-59
2023/09/20 02:56:39;;;;;;;4.80;1.80;;;;;;;17.49;67.30;100362.19;4181450;28;20128;-59
2023/09/20 02:58:42;;;;;;;3.28;2.00;;;;;;;17.56;67.22;100361.19;4184151;28;20075;-59
2023/09/20 03:00:50;;;;;;;4.43;1.75;;;;;;;17.54;67.47;100363.00;4176184;28;20056;-59
2023/09/20 03:03:00;;;;;;;3.53;1.85;;;;;;;17.50;67.58;100359.53;4198216;28;20094;-59
2023/09/20 03:05:03;;;;;;;2.85;1.92;;;;;;;17.51;67.93;100349.88;4179132;28;20123;-59
2023/09/20 03:07:09;;;;;;;4.25;2.00;;;;;;;17.53;67.72;100356.84;4183335;28;20473;-59
2023/09/20 03:09:12;;;;;;;2.92;1.67;;;;;;;17.52;67.60;100360.38;4185210;28;20037;-59
2023/09/20 03:11:21;;;;;;;2.40;1.70;;;;;;;17.59;67.27;100358.50;4167786;28;20045;-59
2023/09/20 03:13:26;;;;;;;4.35;2.00;;;;;;;17.56;67.57;100353.31;4184960;28;20037;-59
2023/09/20 03:15:31;;;;;;;3.15;1.50;;;;;;;17.53;67.77;100337.59;4186108;28;20582;-59
2023/09/20 03:17:37;;;;;;;2.95;1.60;;;;;;;17.49;67.52;100343.78;4184551;28;20136;-59
2023/09/20 03:19:44;;;;;;;3.70;1.98;;;;;;;17.51;67.41;100339.34;4193148;28;20042;-59
2023/09/20 03:21:47;;;;;;;2.58;1.83;;;;;;;17.53;67.24;100338.44;4173424;28;20049;-59
2023/09/20 03:23:50;;;;;;;4.95;1.88;;;;;;;17.65;66.07;100336.50;4186943;28;20037;-59
2023/09/20 03:25:53;;;;;;;2.92;1.67;;;;;;;17.45;67.15;100330.69;4184143;28;20044;-59
2023/09/20 03:27:59;;;;;;;3.40;1.90;;;;;;;17.42;67.29;100321.97;4187435;28;20087;-59
2023/09/20 03:30:05;;;;;;;4.85;2.10;;;;;;;17.54;66.93;100318.31;4184317;28;20055;-59
2023/09/20 03:32:08;;;;;;;3.22;1.80;;;;;;;17.42;67.27;100330.75;4185327;28;20040;-59
2023/09/20 03:34:13;;;;;;;6.95;2.10;;;;;;;17.39;67.32;100325.53;4161660;28;20041;-59
2023/09/20 03:36:17;;;;;;;4.75;2.20;;;;;;;17.45;66.88;100320.19;4185295;28;20519;-59
2023/09/20 03:38:23;;;;;;;2.75;1.83;;;;;;;17.38;66.98;100315.91;4200625;28;20036;-59
2023/09/20 03:40:28;;;;;;;4.22;2.00;;;;;;;17.38;67.31;100313.28;4187594;28;20043;-59
2023/09/20 03:42:35;;;;;;;5.18;2.00;;;;;;;17.40;67.10;100322.00;4183805;28;20044;-59
2023/09/20 03:44:39;;;;;;;6.65;2.33;;;;;;;17.50;66.68;100314.84;4180176;28;20032;-59
2023/09/20 03:46:42;;;;;;;5.97;1.90;;;;;;;17.41;67.21;100318.50;4188376;28;20041;-59
2023/09/20 03:48:45;;;;;;;3.63;2.47;;;;;;;17.48;66.73;100314.00;4203756;28;20466;-59
2023/09/20 03:50:49;;;;;;;3.80;2.00;;;;;;;17.52;66.21;100312.19;4181239;28;20036;-59
2023/09/20 03:52:53;;;;;;;6.25;2.45;;;;;;;17.51;66.44;100321.84;4187596;28;20119;-59
2023/09/20 03:54:57;;;;;;;4.20;1.97;;;;;;;17.31;66.61;100314.28;4185800;28;20028;-59
2023/09/20 03:57:00;;;;;;;4.90;1.77;;;;;;;17.28;67.15;100315.19;4182895;28;20536;-59
2023/09/20 03:59:03;;;;;;;3.53;1.77;;;;;;;17.34;67.20;100313.38;4185923;28;20071;-59
2023/09/20 04:01:09;;;;;;;4.40;1.95;;;;;;;17.30;67.45;100319.56;4175809;28;20075;-59
2023/09/20 04:03:13;;;;;;;5.97;1.92;;;;;;;17.35;67.13;100307.22;4190035;28;20450;-59
2023/09/20 04:05:17;;;;;;;7.68;2.22;;;;;;;17.40;67.02;100310.63;4192815;28;20119;-59
2023/09/20 04:07:37;;;;;;;3.78;2.35;;;;;;;17.41;67.00;100302.72;4176459;28;20044;-59
2023/09/20 04:09:41;;;;;;;3.78;1.90;;;;;;;17.45;66.58;100299.16;4184505;28;20564;-59
2023/09/20 04:11:44;;;;;;;4.85;1.90;;;;;;;17.41;66.69;100301.88;4183891;28;20032;-59
2023/09/20 04:13:47;;;;;;;3.28;2.03;;;;;;;17.40;66.99;100303.59;4187129;28;20086;-59
2023/09/20 04:15:50;;;;;;;2.88;1.90;;;;;;;17.39;66.70;100298.38;4180398;28;20461;-59
2023/09/20 04:17:52;;;;;;;5.55;2.00;;;;;;;17.39;66.71;100301.00;4188887;28;20037;-59
2023/09/20 04:19:55;;;;;;;4.57;2.28;;;;;;;17.36;66.51;100294.06;4192230;28;20029;-59
2023/09/20 04:22:01;;;;;;;3.53;1.80;;;;;;;17.41;66.19;100294.84;4188999;28;20037;-59
2023/09/20 04:24:05;;;;;;;4.88;2.03;;;;;;;17.56;65.86;100296.34;4192124;28;20060;-59
2023/09/20 04:26:09;;;;;;;5.50;2.80;;;;;;;17.53;65.80;100299.03;4190313;28;20094;-59
2023/09/20 04:28:12;;;;;;;6.18;2.47;;;;;;;17.54;66.11;100292.88;4205497;28;20064;-59
2023/09/20 04:30:17;;;;;;;4.97;2.20;;;;;;;17.48;66.16;100292.09;4193120;28;20462;-59
2023/09/20 04:32:21;;;;;;;3.38;1.95;;;;;;;17.48;65.98;100286.84;4192490;28;20040;-59
2023/09/20 04:34:24;;;;;;;4.95;2.22;;;;;;;17.55;66.04;100288.47;4205578;28;20028;-59
2023/09/20 04:36:28;;;;;;;3.58;2.05;;;;;;;17.48;66.04;100294.72;4192133;28;20032;-59
2023/09/20 04:38:31;;;;;;;5.88;2.38;;;;;;;17.52;66.21;100291.16;4205398;28;20051;-59
2023/09/20 04:40:34;;;;;;;4.53;2.22;;;;;;;17.54;66.04;100292.88;4202117;28;20035;-59
2023/09/20 04:42:38;;;;;;;3.10;2.05;;;;;;;17.49;66.20;100293.84;4193137;28;20544;-59
2023/09/20 04:44:42;;;;;;;6.53;2.60;;;;;;;17.44;66.60;100292.16;4187955;28;20063;-59
2023/09/20 04:46:47;;;;;;;5.50;2.28;;;;;;;17.47;66.58;100290.38;4190808;28;20033;-59
2023/09/20 04:48:50;;;;;;;6.15;2.22;;;;;;;17.41;66.69;100292.22;4191538;28;20032;-59
2023/09/20 04:50:55;;;;;;;5.80;2.53;;;;;;;17.48;66.61;100285.09;4190383;28;20044;-59
2023/09/20 04:52:58;;;;;;;3.67;1.90;;;;;;;17.54;66.12;100284.13;4190928;28;20424;-59
2023/09/20 04:55:02;;;;;;;4.60;2.25;;;;;;;17.44;66.75;100286.91;4189993;28;20029;-59
2023/09/20 04:57:05;;;;;;;3.35;2.47;;;;;;;17.41;66.68;100289.59;4191230;28;20107;-59
2023/09/20 04:59:09;;;;;;;3.97;2.08;;;;;;;17.39;66.78;100290.50;4192759;28;20056;-59
2023/09/20 05:01:14;;;;;;;5.25;2.50;;;;;;;17.33;67.18;100288.84;4188222;28;20562;-59
2023/09/20 05:03:19;;;;;;;6.07;2.42;;;;;;;17.33;67.22;100298.50;4192680;28;20040;-59
2023/09/20 05:05:23;;;;;;;4.47;2.35;;;;;;;17.26;67.02;100309.09;4191020;28;20048;-59
2023/09/20 05:07:27;;;;;;;4.53;1.90;;;;;;;17.18;68.07;100304.84;4187541;28;20099;-59
2023/09/20 05:09:34;;;;;;;4.55;2.15;;;;;;;17.35;67.21;100302.84;4191784;28;20118;-59
2023/09/20 05:11:38;;;;;;;6.50;1.77;;;;;;;17.21;67.71;100313.56;4189578;28;20488;-59
2023/09/20 05:13:41;;;;;;;5.55;2.28;;;;;;;17.13;68.43;100307.56;4189387;28;20044;-59
2023/09/20 05:15:45;;;;;;;4.88;2.15;;;;;;;17.13;68.13;100312.81;4186575;28;20029;-59
2023/09/20 05:17:49;;;;;;;;;;;;;;;17.10;68.39;100312.88;4189781;28;20111;-58
2023/09/20 05:19:52;;;;;;;3.30;2.08;;;;;;;17.21;67.80;100313.56;4182936;28;20023;-59
2023/09/20 05:21:55;;;;;;;3.88;2.30;;;;;;;17.13;68.05;100314.56;4193863;28;20123;-60
2023/09/20 05:23:58;;;;;;;4.55;2.53;;;;;;;17.15;68.09;100316.28;4178252;28;20041;-59
2023/09/20 05:26:02;;;;;;;4.20;2.50;;;;;;;17.28;67.32;100309.94;4187550;28;20048;-59
2023/09/20 05:28:06;;;;;;;4.30;2.45;;;;;;;17.26;67.33;100318.75;4189356;28;20287;-59
2023/09/20 05:30:11;;;;;;;3.10;2.00;;;;;;;17.17;67.50;100313.63;4184464;28;20040;-59
2023/09/20 05:32:15;;;;;;;5.30;2.42;;;;;;;17.10;67.77;100307.63;4191424;28;20029;-59
2023/09/20 05:34:18;;;;;;;6.22;2.17;;;;;;;17.08;68.01;100310.25;4188214;28;20060;-59
2023/09/20 05:36:27;;;;;;;3.28;2.08;;;;;;;17.09;67.87;100303.25;4186661;28;20037;-58
2023/09/20 05:38:29;;;;;;;6.05;2.22;;;;;;;17.27;67.74;100309.97;4189526;28;20045;-59
2023/09/20 05:40:33;;;;;;;3.95;1.92;;;;;;;17.18;67.54;100316.22;4186815;28;20052;-59
2023/09/20 05:42:36;;;;;;;3.47;2.15;;;;;;;17.30;67.39;100303.78;4189259;28;20041;-59
2023/09/20 05:44:40;;;;;;;4.15;1.73;;;;;;;17.16;68.19;100311.91;4188828;28;20051;-59
2023/09/20 05:46:43;;;;;;;4.47;2.00;;;;;;;17.08;68.37;100315.53;4178267;28;20476;-59
2023/09/20 05:48:48;;;;;;;4.63;1.75;;;;;;;17.10;68.28;100313.72;4185034;28;20043;-59
2023/09/20 05:50:54;;;;;;;3.83;2.10;;;;;;;17.25;68.39;100312.63;4186574;28;20059;-59
2023/09/20 05:52:56;;;;;;;4.65;2.20;;;;;;;17.25;67.71;100317.00;4180960;28;20135;-58
2023/09/20 05:54:59;;;;;;;4.00;2.03;;;;;;;17.25;67.51;100317.00;4184683;28;20048;-59
2023/09/20 05:57:03;;;;;;;3.55;1.77;;;;;;;17.25;67.34;100317.00;4187705;28;20400;-60
2023/09/20 05:59:07;;;;;;;5.55;1.92;;;;;;;17.23;67.72;100313.53;4185564;28;20040;-60
2023/09/20 06:01:10;;;;;;;4.78;2.00;;;;;;;17.33;67.82;100320.38;4185862;28;20079;-60
2023/09/20 06:03:13;;;;;;;3.33;1.90;;;;;;;17.30;68.27;100320.41;4187244;28;20045;-60
2023/09/20 06:05:18;;;;;;;4.65;1.70;;;;;;;17.25;67.78;100317.88;4187136;28;20044;-60
2023/09/20 06:07:21;;;;;;;6.15;2.60;;;;;;;17.42;67.14;100314.09;4185588;28;20041;-60
2023/09/20 06:09:24;;;;;;;5.30;2.72;;;;;;;17.44;67.44;100305.31;4186973;28;20036;-60
2023/09/20 06:11:27;;;;;;;3.70;2.20;;;;;;;17.40;67.29;100308.88;4186347;28;20135;-60
2023/09/20 06:13:30;;;;;;;5.32;2.03;;;;;;;17.37;68.06;100302.81;4184100;28;20044;-60
2023/09/20 06:15:33;;;;;;;2.72;1.80;;;;;;;17.42;67.64;100311.47;4180895;28;20111;-60
2023/09/20 06:17:36;;;;;;;4.10;1.90;;;;;;;17.45;67.40;100314.06;4182145;28;20033;-60
2023/09/20 06:19:40;;;;;;;2.72;2.03;;;;;;;17.43;67.38;100310.59;4183435;28;20170;-59
2023/09/20 06:21:46;;;;;;;3.67;2.00;;;;;;;17.53;67.14;100309.53;4177766;28;20060;-59
2023/09/20 06:23:48;;;;;;;5.75;2.15;;;;;;;17.70;66.25;100311.88;4188711;28;20047;-60
2023/09/20 06:25:51;;;;;;;2.88;1.48;;;;;;;17.55;66.96;100306.88;4182712;28;20057;-60
2023/09/20 06:27:54;;;;;;;2.63;1.73;;;;;;;17.56;67.06;100308.63;4187095;28;20037;-60
2023/09/20 06:29:56;;;;;;;5.55;1.70;;;;;;;17.61;67.12;100301.53;4188426;28;20055;-59
2023/09/20 06:31:59;;;;;;;5.15;1.80;;;;;;;17.58;67.26;100314.72;4183676;28;20037;-60
2023/09/20 06:34:03;;;;;;;3.80;2.20;;;;;;;17.66;66.82;100307.56;4186249;28;20048;-60
2023/09/20 06:36:08;;;;;;;2.60;1.77;;;;;;;17.62;67.14;100305.88;4187098;28;20586;-59
2023/09/20 06:38:12;;;;;;;5.30;2.30;;;;;;;17.64;67.11;100301.47;4185845;28;20033;-60
2023/09/20 06:40:22;;;;;;;4.13;2.17;;;;;;;17.70;66.68;100304.00;4181686;28;20060;-60
2023/09/20 06:42:25;;;;;;;3.45;1.65;;;;;;;17.78;65.57;100295.97;4188599;28;20048;-60
2023/09/20 06:44:28;;;;;;;3.63;2.03;;;;;;;17.68;66.30;100297.88;4183878;28;20036;-60
2023/09/20 06:46:35;;;;;;;4.03;1.83;;;;;;;17.76;65.82;100288.09;4184949;28;20080;-60
2023/09/20 06:48:37;;;;;;;2.78;1.90;;;;;;;17.85;65.85;100294.09;4184634;28;20062;-60
2023/09/20 06:50:40;;;;;;;6.38;3.38;;;;;;;17.92;65.90;100293.97;4185088;28;20442;-60
2023/09/20 06:52:43;;;;;;;4.05;2.00;;;;;;;17.96;65.60;100294.81;4183125;28;20458;-59
2023/09/20 06:54:48;;;;;;;4.40;2.35;;;;;;;17.98;65.63;100290.38;4183461;28;20098;-60
2023/09/20 06:56:50;;;;;;;4.15;1.90;;;;;;;18.01;64.54;100290.31;4176525;28;20484;-59
2023/09/20 06:58:53;;;;;;;6.90;1.80;;;;;;;18.12;64.81;100293.59;4170778;28;20047;-60
2023/09/20 07:00:59;;;;;;;5.72;1.90;;;;;;;18.09;64.43;100280.50;4178943;28;20556;-59
2023/09/20 07:03:03;;;;;;;5.30;2.08;;;;;;;18.07;64.86;100287.56;4181283;28;20037;-59
2023/09/20 07:05:05;;;;;;;2.15;1.60;;;;;;;18.22;64.40;100296.91;4181085;28;20045;-59
2023/09/20 07:07:10;;;;;;;4.50;2.17;;;;;;;18.26;64.81;100297.72;4181067;28;20072;-59
2023/09/20 07:09:13;;;;;;;3.78;1.65;;;;;;;18.28;64.85;100298.53;4180601;28;20048;-59
2023/09/20 07:11:17;;;;;;;5.60;1.88;;;;;;;18.28;64.85;100291.53;4181135;28;20547;-59
2023/09/20 07:13:20;;;;;;;5.07;1.85;;;;;;;18.33;64.23;100301.09;4180607;28;20471;-60
2023/09/20 07:15:25;;;;;;;2.75;1.65;;;;;;;18.32;64.68;100297.59;4180926;28;20049;-60
2023/09/20 07:17:29;;;;;;;6.35;2.42;;;;;;;18.41;64.09;100292.16;4181999;28;20115;-60
2023/09/20 07:19:35;;;;;;;6.75;2.08;;;;;;;18.41;64.21;100300.06;4184032;28;20124;-60
2023/09/20 07:21:38;;;;;;;3.55;1.80;;;;;;;18.40;64.09;100300.06;4183924;28;20037;-59
2023/09/20 07:23:41;;;;;;;4.05;1.80;;;;;;;18.50;64.04;100301.63;4187206;28;20041;-59
2023/09/20 07:25:45;;;;;;;3.83;1.77;;;;;;;18.52;64.35;100302.44;4181964;28;20483;-60
2023/09/20 07:27:49;;;;;;;3.03;2.30;;;;;;;18.50;64.24;100296.38;4185388;28;20032;-60
2023/09/20 07:29:52;;;;;;;3.95;1.95;;;;;;;18.59;64.18;100300.56;4186438;28;20033;-60
2023/09/20 07:31:56;;;;;;;2.83;1.50;;;;;;;18.69;63.87;100296.84;4182728;28;20033;-59
2023/09/20 07:33:59;;;;;;;2.63;1.83;;;;;;;18.59;63.68;100303.19;4190244;28;20069;-59
2023/09/20 07:36:05;;;;;;;4.53;1.83;;;;;;;18.59;63.30;100300.56;4187161;28;20437;-59
2023/09/20 07:38:12;;;;;;;2.60;1.65;;;;;;;18.47;63.34;100301.66;4184517;28;20051;-58
2023/09/20 07:40:15;;;;;;;2.97;1.60;;;;;;;18.40;63.63;100297.41;4184105;28;20098;-59
2023/09/20 07:42:20;;;;;;;6.20;2.15;;;;;;;18.62;63.87;100292.59;4188787;28;20051;-59
2023/09/20 07:44:25;;;;;;;4.22;1.88;;;;;;;18.62;63.61;100292.59;4184345;28;20412;-59
2023/09/20 07:46:33;;;;;;;3.60;1.90;;;;;;;18.67;63.80;100288.06;4182663;28;20118;-59
2023/09/20 07:48:44;;;;;;;5.35;1.88;;;;;;;18.86;63.93;100293.84;4189873;28;20064;-59
2023/09/20 07:50:49;;;;;;;3.22;1.83;;;;;;;19.11;62.36;100282.72;4187179;28;20408;-59
2023/09/20 07:52:51;;;;;;;5.03;2.05;;;;;;;18.99;62.59;100283.88;4181174;28;20039;-59
2023/09/20 07:54:54;;;;;;;5.00;2.00;;;;;;;19.02;62.72;100284.66;4187888;28;20128;-58
2023/09/20 07:56:57;;;;;;;3.88;1.85;;;;;;;19.09;63.09;100285.41;4186701;28;20041;-58
2023/09/20 07:59:00;;;;;;;4.15;1.75;;;;;;;19.24;62.44;100288.56;4179397;28;20144;-59
2023/09/20 08:01:12;;;;;;;3.20;1.70;;;;;;;19.22;61.93;100285.13;4186356;28;20060;-59
2023/09/20 08:03:17;;;;;;;3.33;1.70;;;;;;;19.21;61.85;100280.75;4183299;28;20029;-59
2023/09/20 08:05:23;;;;;;;3.25;1.80;;;;;;;19.35;61.93;100276.00;4183341;28;20105;-58
2023/09/20 08:07:26;;;;;;;3.90;2.25;;;;;;;19.38;62.15;100281.19;4186620;28;20033;-59
2023/09/20 08:09:28;;;;;;;4.38;1.75;;;;;;;19.22;61.79;100279.84;4178212;28;20451;-58
2023/09/20 08:11:32;;;;;;;4.47;1.83;;;;;;;19.24;62.18;100276.25;4173896;28;20033;-59
2023/09/20 08:13:35;;;;;;;5.10;2.22;;;;;;;19.23;62.16;100278.91;4174194;28;20409;-59
2023/09/20 08:15:42;;;;;;;3.72;1.55;;;;;;;19.21;62.16;100278.97;4175586;28;20067;-58
2023/09/20 08:20:11;;;;;;;2.67;1.63;;;;;;;19.43;62.70;100276.66;4166219;28;20037;-59
2023/09/20 08:22:17;;;;;;;2.70;1.70;;;;;;;19.47;62.03;100280.09;4175987;28;20091;-59
2023/09/20 08:59:52;;;;;;;5.47;1.80;;;;;;;20.78;58.95;100257.09;4164972;28;20128;-58
2023/09/20 09:01:55;;;;;;;10.18;1.90;;;;;;;20.91;58.51;100264.59;4171864;28;20068;-58
2023/09/20 09:04:01;;;;;;;5.95;2.17;;;;;;;20.99;58.02;100266.13;4186733;28;20043;-59
2023/09/20 09:06:06;;;;;;;4.45;1.90;;;;;;;21.26;57.02;100262.59;4176892;28;20110;-58
2023/09/20 09:08:10;;;;;;;;;;;;;;;21.19;56.94;100258.41;4182278;28;20041;-58
2023/09/20 09:10:13;;;;;;;3.42;1.70;;;;;;;21.22;56.91;100257.47;4180286;28;19928;-58
2023/09/20 09:12:17;;;;;;;2.45;1.63;;;;;;;21.31;56.95;100251.00;4175343;28;20045;-58
2023/09/20 09:14:19;;;;;;;4.82;1.85;;;;;;;21.51;56.44;100255.63;4181949;28;20075;-58
2023/09/20 09:16:21;;;;;;;3.25;1.58;;;;;;;21.41;56.59;100255.06;4185831;28;20064;-58
2023/09/20 09:18:24;;;;;;;4.13;1.65;;;;;;;21.44;56.04;100250.50;4181565;28;20111;-58
2023/09/20 09:20:29;;;;;;;3.67;1.63;;;;;;;21.42;55.99;100248.84;4177896;28;20518;-58
2023/09/20 09:22:36;;;;;;;3.72;1.65;;;;;;;21.25;56.68;100252.06;4179862;28;20132;-58
2023/09/20 09:24:43;;;;;;;5.22;1.80;;;;;;;21.25;56.92;100252.91;4180245;28;20045;-58
2023/09/20 09:26:46;;;;;;;4.65;2.10;;;;;;;21.16;57.06;100261.16;4179771;28;20040;-58
2023/09/20 09:28:51;;;;;;;4.82;2.00;;;;;;;21.20;57.77;100254.00;4181943;28;20531;-58
2023/09/20 09:30:54;;;;;;;3.30;1.95;;;;;;;21.20;58.08;100249.59;4181143;28;20036;-58
2023/09/20 09:32:58;;;;;;;4.45;1.92;;;;;;;21.21;58.19;100246.00;4170595;28;20163;-58
2023/09/20 09:35:05;;;;;;;9.07;2.08;;;;;;;21.28;58.80;100244.88;4181780;28;20124;-66
2023/09/20 09:37:08;;;;;;;3.30;1.60;;;;;;;21.25;58.36;100247.63;4175201;28;20120;-59
2023/09/20 09:39:14;;;;;;;4.15;1.90;;;;;;;21.40;57.90;100245.38;4175830;28;20094;-60
2023/09/20 09:41:41;;;;;;;3.08;1.52;;;;;;;21.24;58.10;100243.25;4179994;28;20041;-60
2023/09/20 09:43:57;;;;;;;3.05;1.85;;;;;;;21.34;57.68;100245.59;4182109;28;20041;-64
2023/09/20 09:46:06;;;;;;;3.13;1.77;;;;;;;21.38;57.58;100244.59;4172892;28;20415;-63
2023/09/20 09:48:10;;;;;;;6.07;2.08;;;;;;;21.37;57.08;100248.16;4181248;28;20033;-60
2023/09/20 09:50:13;;;;;;;3.57;1.90;;;;;;;21.38;57.18;100236.66;4166069;28;20037;-59
2023/09/20 09:52:16;;;;;;;6.45;1.67;;;;;;;21.42;57.46;100240.91;4165934;28;20280;-60
2023/09/20 09:54:21;;;;;;;4.18;1.65;;;;;;;21.45;56.99;100243.47;4165856;28;20053;-60
2023/09/20 09:56:26;;;;;;;7.60;1.83;;;;;;;21.44;57.45;100236.44;4170514;28;20034;-59
2023/09/20 09:58:29;;;;;;;2.65;1.73;;;;;;;21.47;56.81;100241.63;4176944;28;20037;-60
2023/09/20 10:00:32;;;;;;;6.22;2.05;;;;;;;21.61;56.35;100228.81;4178522;28;20041;-60
2023/09/20 10:02:40;;;;;;;3.38;1.80;;;;;;;21.69;56.41;100225.03;4176511;28;20051;-59
2023/09/20 10:04:50;;;;;;;3.83;1.75;;;;;;;21.91;56.33;100223.31;4171771;28;20381;-59
2023/09/20 10:07:01;;;;;;;4.32;1.92;;;;;;;22.18;56.97;100220.59;4171548;28;20044;-60
2023/09/20 10:09:11;;;;;;;4.32;1.98;;;;;;;22.22;55.31;100219.53;4174706;28;20477;-60
2023/09/20 10:11:15;;;;;;;3.55;1.90;;;;;;;22.26;55.65;100215.84;4175231;28;20049;-59
2023/09/20 10:13:18;;;;;;;4.07;1.67;;;;;;;22.42;55.34;100213.50;4177434;28;20052;-60
2023/09/20 10:15:22;;;;;;;4.05;1.60;;;;;;;22.45;55.22;100209.88;4174362;28;20045;-60
2023/09/20 10:17:30;;;;;;;3.42;1.90;;;;;;;22.58;54.10;100205.81;4173788;28;20405;-60